»·PEaware :: N211AA KBUR-KSBA

N211AA :: KBUR-KSBA

FLIGHT INFORMATION

Flight Status: Arrived
Operator: Privately registered:
United States
More flights under this callsign
Pilot: Abraham A. (10052)
Aircraft: CESSNA 172 SKYHAWK
(C172)
More flights by this aircraft type
Origin: KBUR Bob Hope-Burbank
United States
Destination: KSBA Santa Barbara Mun
United States
More flights between these airports :: More routes between these airports
Route: VNY3 FIM V186 DEANO V27 KWANG
File this flight plan on PilotEdge
Remarks: TEC Route
Altitude:
(Current/Filed)
6,000ft
Speed:
(Current/Filed)
110kts
Departed: 15-Dec-16 11:19 AM
Arrived: 15-Dec-16 12:20 PM
Distance/Time
Traveled:
75nm/1:01
Distance/Time
To Go:
Arrived

Flight Plot

Page will automatically refresh every two minutes.


Map Options




Map Legend


Flown Route
Filed Route
Departure Airport
Arrival Airport
Navaid (VOR, NDB)
Fix

Horizontal Profiles

Position Reports

Time Latitude Longitude Heading Altitude Ground
Speed
15-Dec-16 10:30 34.196154 -118.368470 0 724ft 0kts
15-Dec-16 10:31 34.196154 -118.368470 0 724ft 0kts
15-Dec-16 10:32 34.196154 -118.368470 0 724ft 0kts
15-Dec-16 10:33 34.196154 -118.368470 0 724ft 0kts
15-Dec-16 10:34 34.196154 -118.368470 0 724ft 0kts
15-Dec-16 10:35 34.196154 -118.368470 0 724ft 0kts
15-Dec-16 10:36 34.196154 -118.368470 0 724ft 0kts
15-Dec-16 10:37 34.196154 -118.368470 0 724ft 0kts
15-Dec-16 10:38 34.196154 -118.368470 0 724ft 0kts
15-Dec-16 10:39 34.196154 -118.368470 0 724ft 0kts
15-Dec-16 10:40 34.196154 -118.368470 0 724ft 0kts
15-Dec-16 10:41 34.196154 -118.368470 0 724ft 0kts
15-Dec-16 10:42 34.196154 -118.368470 0 724ft 0kts
15-Dec-16 10:43 34.196154 -118.368470 0 724ft 0kts
15-Dec-16 10:44 34.196154 -118.368470 0 724ft 0kts
15-Dec-16 10:45 34.196154 -118.368470 0 724ft 0kts
15-Dec-16 10:46 34.196154 -118.368470 0 724ft 0kts
15-Dec-16 10:47 34.196154 -118.368470 0 724ft 0kts
15-Dec-16 10:48 34.196154 -118.368470 0 724ft 0kts
15-Dec-16 10:49 34.196154 -118.368470 0 724ft 0kts
15-Dec-16 10:50 34.196154 -118.368470 0 724ft 0kts
15-Dec-16 10:51 34.196154 -118.368470 0 724ft 0kts
15-Dec-16 10:52 34.196154 -118.368470 0 724ft 0kts
15-Dec-16 10:53 34.196154 -118.368470 0 724ft 0kts
15-Dec-16 10:54 34.196155 -118.368470 0 724ft 0kts
15-Dec-16 10:55 34.196158 -118.368470 0 724ft 0kts
15-Dec-16 10:56 34.196161 -118.368470 0 724ft 0kts
15-Dec-16 10:57 34.196165 -118.368470 0 724ft 0kts
15-Dec-16 10:58 34.196168 -118.368470 0 724ft 0kts
15-Dec-16 10:59 34.196172 -118.368470 0 724ft 0kts
15-Dec-16 11:00 34.196175 -118.368470 0 724ft 0kts
15-Dec-16 11:01 34.196179 -118.368470 0 724ft 0kts
15-Dec-16 11:02 34.196182 -118.368470 0 724ft 0kts
15-Dec-16 11:03 34.196186 -118.368470 0 724ft 0kts
15-Dec-16 11:04 34.196383 -118.367810 88 724ft 3kts
15-Dec-16 11:05 34.196921 -118.367059 272 724ft 3kts
15-Dec-16 11:06 34.196875 -118.368144 10 724ft 0kts
15-Dec-16 11:07 34.196879 -118.368143 10 724ft 0kts
15-Dec-16 11:08 34.196882 -118.368142 10 724ft 0kts
15-Dec-16 11:09 34.196932 -118.368486 275 724ft 4kts
15-Dec-16 11:10 34.197243 -118.369026 351 724ft 4kts
15-Dec-16 11:11 34.197806 -118.360207 90 847ft 72kts
15-Dec-16 11:12 34.187013 -118.340943 190 1655ft 79kts
15-Dec-16 11:13 34.169505 -118.358313 217 2430ft 83kts
15-Dec-16 11:14 34.150555 -118.378052 241 3021ft 99kts
15-Dec-16 11:15 34.150601 -118.410772 267 4065ft 96kts
15-Dec-16 11:16 34.152375 -118.442202 268 5142ft 89kts
15-Dec-16 11:17 34.153403 -118.474113 267 5898ft 104kts
15-Dec-16 11:18 34.154831 -118.510674 267 5968ft 103kts
15-Dec-16 11:19 34.156502 -118.548045 272 5978ft 114kts
15-Dec-16 11:20 34.160043 -118.586339 271 5979ft 114kts
15-Dec-16 11:21 34.163463 -118.624346 270 6000ft 113kts
15-Dec-16 11:22 34.166782 -118.663700 271 6000ft 119kts
15-Dec-16 11:23 34.169852 -118.699891 271 5997ft 107kts
15-Dec-16 11:24 34.172870 -118.735524 270 5998ft 105kts
15-Dec-16 11:25 34.175921 -118.771099 270 6002ft 107kts
15-Dec-16 11:26 34.178896 -118.809113 270 6003ft 116kts
15-Dec-16 11:27 34.181619 -118.848534 270 5998ft 123kts
15-Dec-16 11:28 34.186782 -118.889027 275 5989ft 120kts
15-Dec-16 11:29 34.193799 -118.927899 278 5989ft 121kts
15-Dec-16 11:30 34.200970 -118.964809 277 5991ft 109kts
15-Dec-16 11:31 34.206883 -119.000469 276 5998ft 108kts
15-Dec-16 11:32 34.213869 -119.038200 277 5995ft 117kts
15-Dec-16 11:33 34.221492 -119.077936 278 5996ft 123kts
15-Dec-16 11:34 34.228011 -119.111928 278 5989ft 124kts
15-Dec-16 11:35 34.235554 -119.151338 278 5988ft 118kts
15-Dec-16 11:36 34.242577 -119.188276 277 5993ft 108kts
15-Dec-16 11:37 34.249494 -119.225325 278 5994ft 117kts
15-Dec-16 11:38 34.259047 -119.262011 283 5991ft 111kts
15-Dec-16 11:39 34.267628 -119.300018 278 5995ft 122kts
15-Dec-16 11:40 34.274992 -119.337939 278 5989ft 110kts
15-Dec-16 11:41 34.281830 -119.373908 277 5992ft 109kts
15-Dec-16 11:42 34.288614 -119.409653 278 5994ft 108kts
15-Dec-16 11:43 34.295239 -119.445495 277 5993ft 109kts
15-Dec-16 11:44 34.301803 -119.481427 277 5993ft 109kts
15-Dec-16 11:45 34.308246 -119.517341 276 5992ft 109kts
15-Dec-16 11:46 34.314412 -119.552477 277 5992ft 109kts
15-Dec-16 11:47 34.320673 -119.588530 276 5998ft 109kts
15-Dec-16 11:48 34.326897 -119.624645 276 5998ft 109kts
15-Dec-16 11:49 34.332946 -119.660651 275 5997ft 109kts
15-Dec-16 11:50 34.338912 -119.696807 275 5995ft 109kts
15-Dec-16 11:51 34.344814 -119.733019 275 5999ft 109kts
15-Dec-16 11:52 34.350595 -119.769263 275 5999ft 109kts
15-Dec-16 11:53 34.353789 -119.805540 269 5999ft 108kts
15-Dec-16 11:54 34.355828 -119.842081 269 5998ft 108kts
15-Dec-16 11:55 34.357591 -119.877936 269 5997ft 109kts
15-Dec-16 11:56 34.359338 -119.914572 268 5996ft 108kts
15-Dec-16 11:57 34.360994 -119.951062 268 5999ft 108kts
15-Dec-16 11:58 34.362476 -119.989012 268 5631ft 117kts
15-Dec-16 11:59 34.363961 -120.028188 268 4907ft 115kts
15-Dec-16 12:00 34.365278 -120.067097 268 4221ft 115kts
15-Dec-16 12:01 34.367593 -120.105395 293 3992ft 116kts
15-Dec-16 12:02 34.398993 -120.116751 348 3982ft 119kts
15-Dec-16 12:03 34.429900 -120.114830 56 3920ft 116kts
15-Dec-16 12:04 34.430548 -120.079577 97 4010ft 112kts
15-Dec-16 12:05 34.424776 -120.042743 103 3516ft 110kts
15-Dec-16 12:06 34.424747 -120.005470 92 2488ft 102kts
15-Dec-16 12:07 34.425127 -119.974976 90 1982ft 85kts
15-Dec-16 12:08 34.425707 -119.945698 89 1564ft 87kts
15-Dec-16 12:09 34.426242 -119.917492 91 1155ft 79kts
15-Dec-16 12:10 34.426652 -119.889649 90 673ft 85kts
15-Dec-16 12:11 34.427436 -119.861977 92 220ft 72kts
15-Dec-16 12:12 34.427846 -119.846411 58 13ft 7kts
15-Dec-16 12:13 34.428413 -119.845656 61 13ft 0kts
15-Dec-16 12:14 34.428588 -119.845217 63 13ft 8kts
15-Dec-16 12:15 34.429619 -119.844004 157 13ft 0kts
15-Dec-16 12:16 34.429604 -119.843995 151 13ft 0kts

Navigation Log

Ident Type
Flight plan parsing failed, navigation log unavailable